Time;durP1;ratioP1;P1;durP2;ratioP2;P2;SDS_P1;SDS_P2;PMS_P1;PMS_P2;Temp;Humidity;BMP_temperature;BMP_pressure;BME280_temperature;BME280_humidity;BME280_pressure;Samples;Min_cycle;Max_cycle;Signal;HPM_P1;HPM_P2
2022/05/09 00:01:21;;;;;;;3.63;1.88;;;;;;;15.89;53.96;100760.56;4956958;28;20022;-83
2022/05/09 00:03:46;;;;;;;5.18;2.17;;;;;;;15.88;54.15;100757.03;4956552;28;20432;-83
2022/05/09 00:06:12;;;;;;;3.42;2.00;;;;;;;15.86;54.37;100758.19;4956693;28;20070;-83
2022/05/09 00:08:39;;;;;;;4.13;2.30;;;;;;;15.75;54.40;100759.25;4956602;28;20091;-83
2022/05/09 00:11:05;;;;;;;2.92;2.13;;;;;;;15.76;55.05;100758.25;4940898;28;20030;-83
2022/05/09 00:13:30;;;;;;;3.92;2.00;;;;;;;15.70;55.53;100759.69;4940304;28;20046;-83
2022/05/09 00:15:55;;;;;;;4.78;1.88;;;;;;;15.73;54.75;100756.69;4956436;28;20485;-83
2022/05/09 00:18:21;;;;;;;3.17;2.03;;;;;;;15.79;54.24;100749.00;4956172;28;20031;-83
2022/05/09 00:20:47;;;;;;;3.35;1.63;;;;;;;15.78;53.94;100753.56;4955429;28;20030;-83
2022/05/09 00:23:12;;;;;;;4.15;2.00;;;;;;;15.77;54.71;100753.69;4956070;28;20066;-83
2022/05/09 00:25:38;;;;;;;4.25;1.92;;;;;;;15.74;54.71;100747.63;4940255;28;20042;-83
2022/05/09 00:28:03;;;;;;;3.67;2.05;;;;;;;15.68;54.22;100734.72;4956312;28;20031;-82
2022/05/09 00:30:29;;;;;;;4.07;2.10;;;;;;;15.63;54.98;100745.13;4956439;28;20030;-83
2022/05/09 00:32:54;;;;;;;3.60;2.10;;;;;;;15.53;55.68;100740.72;4956390;28;20400;-83
2022/05/09 00:35:20;;;;;;;3.92;2.13;;;;;;;15.57;54.54;100739.44;4956269;28;20033;-83
2022/05/09 00:37:45;;;;;;;2.67;1.95;;;;;;;15.53;55.29;100732.66;4973456;28;20469;-83
2022/05/09 00:40:12;;;;;;;6.10;2.30;;;;;;;15.54;54.97;100729.78;4956351;28;20031;-82
2022/05/09 00:42:46;;;;;;;4.38;2.05;;;;;;;15.51;54.67;100721.16;4956169;28;20058;-83
2022/05/09 00:45:13;;;;;;;4.55;2.15;;;;;;;15.39;55.44;100729.47;4952951;28;20050;-82
2022/05/09 00:47:38;;;;;;;5.13;2.30;;;;;;;15.34;55.34;100726.38;4956260;28;20130;-82
2022/05/09 00:50:05;;;;;;;4.00;2.10;;;;;;;15.37;55.68;100727.91;4939956;28;20110;-83
2022/05/09 00:52:48;;;;;;;4.93;2.17;;;;;;;15.34;55.26;100736.31;4955888;28;20081;-83
2022/05/09 00:55:36;;;;;;;4.75;2.05;;;;;;;15.37;54.87;100730.59;4971822;28;20039;-82
2022/05/09 00:58:10;;;;;;;4.03;1.90;;;;;;;15.41;54.85;100734.69;4955715;28;20027;-82
2022/05/09 01:00:38;;;;;;;4.60;2.15;;;;;;;15.31;55.63;100723.97;4955680;28;20030;-83
2022/05/09 01:03:10;;;;;;;6.53;2.60;;;;;;;15.31;55.25;100723.97;4953691;28;20090;-83
2022/05/09 01:05:37;;;;;;;5.30;2.13;;;;;;;15.33;56.28;100727.38;4954983;28;20041;-82
2022/05/09 01:08:03;;;;;;;3.60;2.17;;;;;;;15.33;55.56;100726.53;4955931;28;20027;-82
2022/05/09 01:10:31;;;;;;;5.80;2.15;;;;;;;15.34;55.68;100728.22;4938424;28;20029;-83
2022/05/09 01:13:01;;;;;;;4.28;2.13;;;;;;;15.22;55.77;100724.88;4955274;28;20074;-83
2022/05/09 01:15:26;;;;;;;2.15;1.90;;;;;;;15.27;55.83;100725.28;4939454;28;20085;-83
2022/05/09 01:17:52;;;;;;;5.18;2.22;;;;;;;15.29;55.83;100725.97;4955264;28;20027;-83
2022/05/09 01:20:18;;;;;;;4.00;2.20;;;;;;;15.27;55.90;100727.97;4955371;28;20206;-83
2022/05/09 01:22:43;;;;;;;4.00;2.40;;;;;;;15.22;55.53;100724.88;4955320;28;20033;-82
2022/05/09 01:25:17;;;;;;;3.78;2.55;;;;;;;15.24;56.12;100719.34;4938121;28;20018;-82
2022/05/09 01:27:44;;;;;;;3.25;2.30;;;;;;;15.25;55.61;100729.97;4970521;28;20046;-83
2022/05/09 01:30:15;;;;;;;4.82;2.25;;;;;;;15.25;55.78;100721.03;4970458;28;20074;-82
2022/05/09 01:32:56;;;;;;;4.47;2.40;;;;;;;15.24;55.87;100722.88;4970602;28;20026;-83
2022/05/09 01:35:25;;;;;;;7.57;2.50;;;;;;;15.25;56.02;100719.19;4954146;28;20121;-83
2022/05/09 01:37:55;;;;;;;4.50;2.33;;;;;;;15.29;55.77;100714.34;4955228;28;20026;-82
2022/05/09 01:40:20;;;;;;;3.58;2.25;;;;;;;15.12;55.62;100715.97;4954861;28;20465;-82
2022/05/09 01:42:45;;;;;;;6.10;2.45;;;;;;;15.10;55.99;100710.72;4954731;28;20126;-83
2022/05/09 01:45:12;;;;;;;4.50;2.25;;;;;;;15.08;55.98;100711.88;4938938;28;20054;-83
2022/05/09 01:50:23;;;;;;;3.80;2.10;;;;;;;15.12;55.71;100715.97;4955094;28;20194;-83
2022/05/09 01:52:48;;;;;;;3.97;2.03;;;;;;;15.03;56.29;100711.47;4954836;28;20026;-82
2022/05/09 01:55:14;;;;;;;3.95;2.22;;;;;;;14.92;56.08;100717.03;4953952;28;20037;-82
2022/05/09 01:57:39;;;;;;;4.47;2.47;;;;;;;14.95;56.17;100720.28;4954793;28;20038;-83
2022/05/09 02:00:06;;;;;;;4.05;2.60;;;;;;;14.93;56.66;100719.59;4954631;28;20385;-83
2022/05/09 02:02:31;;;;;;;4.22;2.35;;;;;;;14.87;56.41;100714.78;4951680;28;20034;-83
2022/05/09 02:04:57;;;;;;;4.28;2.33;;;;;;;14.84;56.75;100716.94;4954618;28;20042;-82
2022/05/09 02:07:26;;;;;;;5.13;2.88;;;;;;;14.83;56.92;100710.69;4954539;28;21007;-83
2022/05/09 02:09:52;;;;;;;5.70;2.58;;;;;;;14.82;57.09;100722.47;4938982;28;20169;-82
2022/05/09 02:12:18;;;;;;;3.63;2.33;;;;;;;14.85;56.94;100715.94;4966811;28;20177;-83
2022/05/09 02:14:45;;;;;;;4.95;2.70;;;;;;;14.86;57.74;100723.00;4950907;29;20117;-83
2022/05/09 02:17:11;;;;;;;6.53;2.83;;;;;;;14.84;57.26;100722.31;4951438;28;20035;-83
2022/05/09 02:19:37;;;;;;;4.35;2.40;;;;;;;14.78;57.92;100724.59;4967070;28;20023;-83
2022/05/09 02:22:03;;;;;;;6.03;2.33;;;;;;;14.76;57.30;100721.19;4950795;28;20034;-83
2022/05/09 02:24:29;;;;;;;4.43;2.70;;;;;;;14.83;57.40;100720.63;4950861;29;20059;-83
2022/05/09 02:26:55;;;;;;;3.78;2.60;;;;;;;14.82;57.48;100717.06;4950932;29;20031;-82
2022/05/09 02:29:21;;;;;;;5.88;2.97;;;;;;;14.77;57.93;100716.66;4950877;29;20035;-82
2022/05/09 02:31:47;;;;;;;3.92;2.67;;;;;;;14.71;57.52;100714.56;4950467;29;20023;-83
2022/05/09 02:34:13;;;;;;;4.32;2.50;;;;;;;14.84;57.69;100722.31;4934960;29;20143;-82
2022/05/09 02:36:38;;;;;;;4.03;2.55;;;;;;;14.80;57.49;100716.38;4934944;29;20035;-83
2022/05/09 02:39:04;;;;;;;3.45;2.58;;;;;;;14.72;57.19;100713.56;4949215;29;20070;-83
2022/05/09 02:41:30;;;;;;;3.75;2.85;;;;;;;14.67;57.59;100713.16;4950684;29;20063;-82
2022/05/09 02:43:55;;;;;;;4.28;2.63;;;;;;;14.69;57.76;100716.56;4951109;29;21017;-82
2022/05/09 02:46:21;;;;;;;5.63;2.70;;;;;;;14.68;58.00;100717.53;4950695;29;20046;-83
2022/05/09 02:48:46;;;;;;;4.60;2.55;;;;;;;14.68;58.08;100715.69;4951324;29;20031;-83
2022/05/09 02:51:13;;;;;;;6.38;3.00;;;;;;;14.67;58.17;100718.53;4950717;29;20042;-83
2022/05/09 02:53:39;;;;;;;4.47;2.92;;;;;;;14.63;57.99;100711.72;4950632;28;20078;-84
2022/05/09 02:56:05;;;;;;;3.25;2.63;;;;;;;14.48;58.58;100705.94;4934736;29;20411;-83
2022/05/09 02:58:30;;;;;;;3.45;2.33;;;;;;;14.54;58.55;100715.28;4950309;29;20023;-83
2022/05/09 03:00:56;;;;;;;4.72;2.75;;;;;;;14.52;58.55;100706.50;4951839;29;20034;-83
2022/05/09 03:06:05;;;;;;;3.78;2.50;;;;;;;14.46;58.68;100705.25;4950971;29;20073;-82
2022/05/09 03:08:31;;;;;;;3.65;2.60;;;;;;;14.30;59.24;100711.19;4934468;29;20462;-83
2022/05/09 03:10:56;;;;;;;5.38;2.75;;;;;;;14.36;59.15;100707.91;4950576;28;20023;-82
2022/05/09 03:13:21;;;;;;;4.53;3.00;;;;;;;14.41;58.94;100704.78;4950071;29;20122;-82
2022/05/09 03:15:47;;;;;;;5.43;2.80;;;;;;;14.43;58.61;100700.16;4949005;29;20890;-83
2022/05/09 03:18:15;;;;;;;3.95;2.85;;;;;;;14.43;58.76;100703.69;4934207;29;20046;-83
2022/05/09 03:20:41;;;;;;;5.50;3.25;;;;;;;14.41;58.60;100697.56;4949641;29;20500;-83
2022/05/09 03:23:07;;;;;;;4.93;2.80;;;;;;;14.38;59.12;100688.94;4934446;29;20121;-83
2022/05/09 03:25:35;;;;;;;4.97;3.00;;;;;;;14.43;58.83;100697.47;4934435;29;20037;-82
2022/05/09 03:28:03;;;;;;;4.00;3.08;;;;;;;14.42;58.30;100691.22;4950331;28;20027;-82
2022/05/09 03:30:29;;;;;;;3.75;2.83;;;;;;;14.33;59.02;100697.44;4950417;28;20062;-82
2022/05/09 03:32:54;;;;;;;4.78;3.05;;;;;;;14.30;59.12;100686.97;4967601;28;20381;-83
2022/05/09 03:35:20;;;;;;;5.32;2.90;;;;;;;14.31;58.90;100693.19;4943041;29;20038;-82
2022/05/09 03:37:48;;;;;;;4.03;3.05;;;;;;;14.29;58.66;100693.34;4954198;29;20118;-83
2022/05/09 03:40:14;;;;;;;6.43;3.05;;;;;;;14.23;59.18;100690.38;4954104;29;20159;-83
2022/05/09 03:42:40;;;;;;;5.63;3.45;;;;;;;14.22;58.74;100688.69;4937300;29;20052;-83
2022/05/09 03:45:06;;;;;;;5.20;3.25;;;;;;;14.24;59.18;100689.38;4954037;29;20027;-82
2022/05/09 03:47:31;;;;;;;6.25;3.28;;;;;;;14.28;58.69;100686.28;4955171;28;20039;-83
2022/05/09 03:49:57;;;;;;;4.93;2.85;;;;;;;14.37;59.27;100687.25;4937880;29;20047;-83
2022/05/09 03:52:23;;;;;;;5.20;3.20;;;;;;;14.34;58.87;100685.69;4953813;28;20035;-83
2022/05/09 03:54:48;;;;;;;7.88;3.13;;;;;;;14.35;58.71;100686.53;4953760;29;20035;-83
2022/05/09 03:57:14;;;;;;;5.63;3.30;;;;;;;14.24;59.53;100687.53;4953721;29;20814;-84
2022/05/09 03:59:39;;;;;;;4.40;3.15;;;;;;;14.24;59.00;100679.47;4937445;29;20038;-82
2022/05/09 04:02:05;;;;;;;3.97;2.88;;;;;;;14.20;58.79;100686.13;4953830;29;20118;-86
2022/05/09 04:04:30;;;;;;;5.70;2.92;;;;;;;14.13;58.85;100685.84;4954262;29;20035;-86
2022/05/09 04:06:55;;;;;;;5.35;3.03;;;;;;;14.04;59.56;100688.53;4955088;29;20031;-86
2022/05/09 04:09:21;;;;;;;4.07;2.83;;;;;;;14.10;59.19;100685.28;4937953;29;20374;-86
2022/05/09 04:11:48;;;;;;;5.05;3.10;;;;;;;14.09;59.40;100687.09;4953910;28;20055;-86
2022/05/09 04:14:14;;;;;;;4.43;3.10;;;;;;;14.09;59.25;100692.50;4953696;28;20046;-86
2022/05/09 04:16:51;;;;;;;4.68;2.70;;;;;;;14.07;59.44;100693.63;4953202;29;20106;-86
2022/05/09 04:19:22;;;;;;;4.57;3.05;;;;;;;14.12;59.27;100688.66;4939392;29;20023;-85
2022/05/09 04:21:47;;;;;;;7.05;3.15;;;;;;;14.14;59.48;100690.22;4953962;28;20793;-85
2022/05/09 04:24:13;;;;;;;4.68;3.10;;;;;;;14.11;59.69;100690.50;4937583;29;20023;-85
2022/05/09 04:26:39;;;;;;;5.97;3.15;;;;;;;14.05;59.61;100693.75;4937294;29;20039;-86
2022/05/09 04:29:04;;;;;;;5.35;3.20;;;;;;;13.99;59.58;100678.19;4953453;29;20386;-85
2022/05/09 04:31:30;;;;;;;5.47;3.20;;;;;;;14.04;59.95;100686.69;4953568;29;20058;-86
2022/05/09 04:33:58;;;;;;;6.18;3.42;;;;;;;14.03;60.48;100690.38;4953900;28;20050;-87
2022/05/09 04:36:25;;;;;;;5.80;3.40;;;;;;;14.02;60.65;100696.75;4954300;28;20484;-86
2022/05/09 04:38:52;;;;;;;5.88;3.47;;;;;;;14.02;60.09;100688.69;4953579;28;20053;-87
2022/05/09 04:41:19;;;;;;;5.22;3.30;;;;;;;14.09;59.76;100687.09;4953327;28;20035;-85
2022/05/09 04:43:45;;;;;;;4.60;3.15;;;;;;;14.05;60.69;100692.91;4953183;28;20027;-86
2022/05/09 04:46:11;;;;;;;6.75;3.50;;;;;;;14.06;60.33;100692.78;4953189;29;20396;-86
2022/05/09 04:48:38;;;;;;;5.85;3.17;;;;;;;14.08;60.77;100693.47;4952704;29;20035;-86
2022/05/09 04:51:03;;;;;;;5.75;3.17;;;;;;;14.06;60.21;100684.72;4953267;28;20982;-85
2022/05/09 04:53:28;;;;;;;4.88;3.20;;;;;;;14.10;61.25;100682.56;4952965;29;20050;-85
2022/05/09 04:55:57;;;;;;;4.85;3.42;;;;;;;14.13;61.16;100690.38;4952997;29;20043;-87
2022/05/09 04:58:24;;;;;;;8.57;3.90;;;;;;;14.14;60.80;100692.91;4937444;29;20129;-87
2022/05/09 05:00:49;;;;;;;7.20;3.67;;;;;;;14.18;60.83;100686.25;4969124;28;20031;-86
2022/05/09 05:03:15;;;;;;;5.38;3.50;;;;;;;14.21;61.03;100687.00;4953001;29;20023;-87
2022/05/09 05:05:41;;;;;;;6.40;3.17;;;;;;;14.22;61.11;100684.16;4952955;29;20371;-86
2022/05/09 05:08:07;;;;;;;5.53;3.30;;;;;;;14.26;61.03;100684.72;4952600;29;20027;-86
2022/05/09 05:10:32;;;;;;;7.07;3.42;;;;;;;14.28;60.92;100688.09;4952757;28;20055;-86
2022/05/09 05:12:59;;;;;;;6.63;3.70;;;;;;;14.33;61.03;100685.84;4952594;28;20051;-85
2022/05/09 05:15:26;;;;;;;8.20;3.42;;;;;;;14.40;60.58;100686.94;4952626;28;20027;-85
2022/05/09 05:17:51;;;;;;;6.78;3.75;;;;;;;14.46;60.49;100683.72;4952518;28;20027;-86
2022/05/09 05:20:17;;;;;;;7.18;3.40;;;;;;;14.48;60.46;100685.25;4951919;29;20078;-86
2022/05/09 05:22:47;;;;;;;5.07;3.50;;;;;;;14.41;61.00;100685.97;4936733;29;20027;-85
2022/05/09 05:25:13;;;;;;;5.32;3.72;;;;;;;14.46;61.11;100689.94;4952451;28;20027;-85
2022/05/09 05:27:39;;;;;;;5.35;3.40;;;;;;;14.55;61.44;100696.28;4935859;29;20482;-87
2022/05/09 05:30:05;;;;;;;6.00;3.53;;;;;;;14.49;60.68;100696.88;4950786;29;20051;-87
2022/05/09 05:32:35;;;;;;;6.55;3.17;;;;;;;14.42;61.83;100690.34;4949657;28;20211;-87
2022/05/09 05:35:01;;;;;;;6.28;3.53;;;;;;;14.41;61.19;100702.94;4941473;28;20122;-85
2022/05/09 05:37:26;;;;;;;4.57;3.25;;;;;;;14.39;62.44;100706.78;4952568;28;20043;-86
2022/05/09 05:39:52;;;;;;;5.32;3.38;;;;;;;14.41;62.38;100705.66;4953596;28;20030;-86
2022/05/09 05:42:19;;;;;;;6.15;3.50;;;;;;;14.40;62.86;100703.94;4970591;28;20050;-85
2022/05/09 05:44:45;;;;;;;5.03;3.60;;;;;;;14.40;62.88;100693.19;4932874;29;20039;-84
2022/05/09 05:47:12;;;;;;;6.32;3.80;;;;;;;14.41;62.73;100686.81;4951735;28;20030;-85
2022/05/09 05:49:39;;;;;;;6.85;3.63;;;;;;;14.45;62.94;100696.31;4951620;29;20059;-85
2022/05/09 05:52:05;;;;;;;7.07;3.75;;;;;;;14.45;62.98;100699.00;4933375;29;20046;-83
2022/05/09 05:54:32;;;;;;;6.05;3.78;;;;;;;14.45;62.78;100701.69;4953019;28;20027;-84
2022/05/09 05:56:58;;;;;;;9.23;4.18;;;;;;;14.40;63.05;100708.47;4950402;28;20037;-84
2022/05/09 05:59:25;;;;;;;7.75;3.80;;;;;;;14.42;62.59;100707.38;4949866;29;20031;-84
2022/05/09 06:01:51;;;;;;;6.75;3.72;;;;;;;14.42;62.30;100706.50;4951018;28;20539;-85
2022/05/09 06:04:17;;;;;;;7.93;4.00;;;;;;;14.46;62.93;100703.41;4951277;28;20039;-84
2022/05/09 06:06:42;;;;;;;7.80;4.20;;;;;;;14.41;63.24;100705.66;4935490;28;20037;-86
2022/05/09 06:09:09;;;;;;;7.38;3.80;;;;;;;14.38;63.22;100707.78;4931846;29;20038;-86
2022/05/09 06:11:35;;;;;;;7.50;4.30;;;;;;;14.36;63.22;100705.22;4952908;28;20469;-85
2022/05/09 06:14:03;;;;;;;9.07;3.90;;;;;;;14.47;64.10;100715.00;4954455;28;20055;-86
2022/05/09 06:16:29;;;;;;;;;;;;;;;14.54;63.31;100716.13;4955011;28;20495;-86
2022/05/09 06:18:54;;;;;;;6.50;4.15;;;;;;;14.56;63.66;100714.16;4931820;28;19919;-86
2022/05/09 06:21:21;;;;;;;6.88;4.38;;;;;;;14.65;63.20;100713.28;4954441;28;20110;-87
2022/05/09 06:23:46;;;;;;;7.40;3.90;;;;;;;14.65;63.85;100715.09;4954769;28;20392;-84
2022/05/09 06:26:14;;;;;;;5.30;4.00;;;;;;;14.67;63.37;100710.47;4953854;28;20031;-88
2022/05/09 06:28:40;;;;;;;6.93;4.18;;;;;;;14.66;63.66;100696.16;4954687;28;20034;-85
2022/05/09 06:31:05;;;;;;;6.45;4.18;;;;;;;14.72;63.97;100698.25;4938596;28;20046;-84
2022/05/09 06:33:31;;;;;;;8.90;4.47;;;;;;;14.83;63.84;100699.06;4952363;28;20138;-86
2022/05/09 06:35:58;;;;;;;7.18;4.30;;;;;;;14.86;63.06;100696.94;4937094;28;21198;-87
2022/05/09 06:38:27;;;;;;;9.48;4.50;;;;;;;14.88;63.79;100696.78;4969535;28;20082;-87
2022/05/09 06:40:53;;;;;;;7.65;4.18;;;;;;;14.92;63.40;100701.72;4956729;28;20041;-87
2022/05/09 06:43:19;;;;;;;6.72;4.32;;;;;;;15.07;62.26;100702.94;4938071;28;20127;-88
2022/05/09 06:45:45;;;;;;;6.63;3.85;;;;;;;15.16;62.12;100698.53;4952258;28;20043;-84
2022/05/09 06:48:11;;;;;;;6.85;3.40;;;;;;;15.16;61.52;100695.84;4950743;28;20027;-85
2022/05/09 06:50:37;;;;;;;7.00;3.50;;;;;;;15.24;61.46;100693.22;4950013;28;20094;-85
2022/05/09 06:53:03;;;;;;;8.52;3.45;;;;;;;15.26;61.32;100693.94;4932578;28;20133;-85
2022/05/09 06:55:29;;;;;;;8.23;3.55;;;;;;;15.21;60.80;100692.69;4949317;28;20045;-85
2022/05/09 06:57:55;;;;;;;5.70;3.70;;;;;;;15.18;61.25;100680.38;4950577;28;20027;-86
2022/05/09 07:00:23;;;;;;;5.90;3.80;;;;;;;15.19;62.09;100692.84;4931119;28;20031;-84
2022/05/09 07:02:49;;;;;;;6.13;3.70;;;;;;;15.27;61.75;100687.53;4945167;28;20191;-84
2022/05/09 07:05:17;;;;;;;5.78;3.58;;;;;;;15.30;61.53;100681.84;4945693;28;20062;-84
2022/05/09 07:07:43;;;;;;;6.07;3.65;;;;;;;15.31;61.76;100686.25;4949632;28;20105;-84
2022/05/09 07:10:10;;;;;;;6.55;3.30;;;;;;;15.38;61.88;100681.09;4950926;28;20031;-85
2022/05/09 07:12:50;;;;;;;4.15;3.25;;;;;;;15.48;62.22;100678.34;4949544;28;20063;-84
2022/05/09 07:15:19;;;;;;;6.35;3.50;;;;;;;15.41;61.78;100673.56;4950907;28;20035;-84
2022/05/09 07:17:45;;;;;;;6.15;3.63;;;;;;;15.44;62.48;100675.94;4934479;28;20481;-86
2022/05/09 07:20:11;;;;;;;4.22;2.92;;;;;;;15.51;62.38;100668.09;4951017;28;20027;-84
2022/05/09 07:22:37;;;;;;;7.40;3.40;;;;;;;15.57;62.08;100678.25;4934497;28;20030;-86
2022/05/09 07:25:03;;;;;;;5.32;3.20;;;;;;;15.68;62.02;100685.34;4950719;28;20639;-83
2022/05/09 07:27:30;;;;;;;4.80;3.08;;;;;;;15.67;62.23;100683.66;4950406;28;20547;-85
2022/05/09 07:29:56;;;;;;;4.65;3.17;;;;;;;15.70;62.98;100681.50;4950910;28;20033;-85
2022/05/09 07:32:21;;;;;;;6.53;2.85;;;;;;;15.68;62.13;100679.97;4933774;28;20018;-87
2022/05/09 07:34:48;;;;;;;6.95;3.58;;;;;;;15.66;62.00;100684.66;4950528;28;20291;-84
2022/05/09 07:37:15;;;;;;;8.90;3.60;;;;;;;15.68;62.07;100679.97;4950571;28;20023;-84
2022/05/09 07:39:40;;;;;;;8.05;3.38;;;;;;;15.73;62.33;100674.94;4950317;28;20030;-86
2022/05/09 07:42:06;;;;;;;6.15;3.10;;;;;;;15.70;62.30;100668.00;4949623;28;20059;-86
2022/05/09 07:44:32;;;;;;;7.93;3.58;;;;;;;15.83;62.33;100670.31;4933029;28;20039;-85
2022/05/09 07:46:57;;;;;;;6.65;3.55;;;;;;;15.74;63.44;100674.78;4949968;28;20046;-85
2022/05/09 07:49:23;;;;;;;7.43;3.80;;;;;;;15.75;63.16;100667.56;4932805;28;20183;-86
2022/05/09 07:51:48;;;;;;;10.63;3.92;;;;;;;15.76;63.02;100671.94;4948392;28;20039;-86
2022/05/09 07:54:14;;;;;;;6.72;3.13;;;;;;;15.82;63.38;100667.78;4949030;28;20042;-86
2022/05/09 07:56:40;;;;;;;8.77;3.90;;;;;;;15.84;62.98;100672.00;4934207;28;20035;-86
2022/05/09 07:59:05;;;;;;;6.85;3.55;;;;;;;15.85;63.38;100671.00;4949968;28;20117;-87
2022/05/09 08:01:31;;;;;;;6.35;3.25;;;;;;;15.87;63.19;100677.09;4944474;28;20485;-86
2022/05/09 08:03:58;;;;;;;8.52;4.22;;;;;;;15.92;63.25;100672.09;4949128;28;20583;-86
2022/05/09 08:06:24;;;;;;;7.07;3.92;;;;;;;15.86;63.43;100683.50;4950091;28;20049;-86
2022/05/09 08:08:50;;;;;;;7.60;4.60;;;;;;;15.83;62.72;100680.25;4949708;28;20477;-85
2022/05/09 08:11:17;;;;;;;5.38;3.45;;;;;;;15.86;63.85;100677.25;4934266;28;20370;-84
2022/05/09 08:13:43;;;;;;;6.35;3.63;;;;;;;15.88;63.13;100684.19;4941938;28;20041;-84
2022/05/09 08:16:09;;;;;;;7.13;4.80;;;;;;;15.85;63.65;100673.72;4933653;28;20073;-86
2022/05/09 08:18:34;;;;;;;5.30;3.42;;;;;;;15.88;63.45;100680.66;4932122;28;20054;-85
2022/05/09 08:21:00;;;;;;;6.53;3.42;;;;;;;16.00;63.57;100677.56;4949882;28;20053;-85
2022/05/09 08:23:27;;;;;;;6.63;3.30;;;;;;;16.05;64.22;100677.94;4932896;28;20213;-84
2022/05/09 08:25:55;;;;;;;6.35;3.65;;;;;;;16.08;64.20;100678.63;4948826;28;20101;-85
2022/05/09 08:28:20;;;;;;;6.93;4.25;;;;;;;16.09;64.10;100669.56;4949643;28;20029;-85
2022/05/09 08:30:47;;;;;;;9.98;4.95;;;;;;;16.15;63.54;100666.22;4948696;28;20042;-85
2022/05/09 08:33:15;;;;;;;6.75;4.28;;;;;;;16.11;63.82;100662.16;4933159;28;20023;-84
2022/05/09 08:35:46;;;;;;;6.47;3.58;;;;;;;16.10;64.27;100666.69;4933171;28;20199;-84
2022/05/09 08:38:12;;;;;;;5.15;3.00;;;;;;;16.19;64.34;100670.31;4932492;28;20377;-85
2022/05/09 08:41:00;;;;;;;6.72;4.03;;;;;;;16.24;64.80;100673.38;4949172;28;20033;-85
2022/05/09 08:43:45;;;;;;;6.13;5.00;;;;;;;16.27;63.63;100679.31;4950926;28;20393;-83
2022/05/09 08:46:32;;;;;;;8.57;5.22;;;;;;;16.24;63.39;100676.09;4949794;28;20400;-84
2022/05/09 08:49:19;;;;;;;8.90;4.72;;;;;;;16.21;63.58;100679.09;4964457;28;20034;-84
2022/05/09 08:52:35;;;;;;;7.38;4.72;;;;;;;16.27;65.03;100673.06;4949332;28;20027;-84
2022/05/09 08:55:01;;;;;;;7.35;4.07;;;;;;;16.26;64.68;100674.06;4909307;29;20497;-86
2022/05/09 08:57:36;;;;;;;8.18;5.03;;;;;;;16.31;64.39;100674.44;4909431;29;20075;-84
2022/05/09 09:00:12;;;;;;;9.93;5.18;;;;;;;16.31;64.69;100663.66;4932696;28;20586;-85
2022/05/09 09:02:42;;;;;;;9.32;5.22;;;;;;;16.35;64.20;100654.22;4966046;28;20129;-85
2022/05/09 09:05:11;;;;;;;8.27;5.25;;;;;;;16.37;63.63;100657.63;4949137;28;20031;-84
2022/05/09 09:08:04;;;;;;;5.97;4.65;;;;;;;16.35;65.12;100654.22;4948722;28;20031;-83
2022/05/09 09:10:37;;;;;;;7.78;4.45;;;;;;;16.44;64.63;100661.38;4963724;28;20046;-85
2022/05/09 09:13:30;;;;;;;7.22;4.40;;;;;;;16.49;65.06;100664.44;4948178;28;20078;-85
2022/05/09 09:16:08;;;;;;;5.57;4.65;;;;;;;16.52;64.91;100661.44;4948040;28;20034;-85
2022/05/09 09:18:48;;;;;;;7.15;4.95;;;;;;;16.55;64.48;100663.81;4965216;28;20496;-84
2022/05/09 09:21:20;;;;;;;7.18;4.32;;;;;;;16.60;65.54;100666.91;4947296;28;20296;-84
2022/05/09 09:24:22;;;;;;;6.90;4.72;;;;;;;16.70;64.57;100668.69;4947625;28;20030;-84
2022/05/09 09:27:42;;;;;;;6.28;4.18;;;;;;;16.76;65.13;100659.94;4963888;28;20062;-84
2022/05/09 09:30:13;;;;;;;9.15;5.07;;;;;;;16.78;64.60;100658.78;4885361;29;20468;-85
2022/05/09 09:32:41;;;;;;;8.95;5.03;;;;;;;16.79;64.64;100659.63;4924669;28;20042;-83
2022/05/09 09:35:26;;;;;;;5.88;4.18;;;;;;;16.74;64.91;100652.00;4932142;28;20027;-84
2022/05/09 09:38:18;;;;;;;9.10;5.28;;;;;;;16.77;65.76;100654.38;4964373;28;20065;-84
2022/05/09 09:40:44;;;;;;;6.40;4.20;;;;;;;16.88;65.33;100650.53;4935302;28;20035;-84
2022/05/09 09:43:09;;;;;;;7.47;4.88;;;;;;;16.91;65.46;100655.63;4931795;28;20105;-85
2022/05/09 09:45:50;;;;;;;6.93;4.57;;;;;;;16.94;65.58;100650.72;4947003;28;20441;-84
2022/05/09 09:48:23;;;;;;;7.20;4.85;;;;;;;16.96;65.20;100650.56;4937110;28;20504;-85
2022/05/09 09:51:07;;;;;;;8.27;5.13;;;;;;;16.99;65.05;100653.78;4954936;28;20039;-84
2022/05/09 09:53:50;;;;;;;6.03;4.28;;;;;;;16.94;64.50;100648.03;4947325;28;20112;-83
2022/05/09 09:56:22;;;;;;;8.70;5.93;;;;;;;17.02;64.67;100647.22;4947487;28;20109;-84
2022/05/09 09:58:53;;;;;;;6.00;4.45;;;;;;;17.03;65.11;100645.38;4965033;28;20322;-84
2022/05/09 10:01:32;;;;;;;8.43;5.45;;;;;;;16.98;65.52;100640.44;4931541;28;20436;-85
2022/05/09 10:04:24;;;;;;;9.30;5.05;;;;;;;16.96;64.90;100637.06;4946841;28;20026;-85
2022/05/09 10:07:12;;;;;;;6.95;4.80;;;;;;;17.03;65.04;100630.03;4946117;28;20094;-84
2022/05/09 10:09:40;;;;;;;8.52;4.95;;;;;;;17.12;65.08;100636.31;4961795;28;20469;-84
2022/05/09 10:12:14;;;;;;;7.70;5.50;;;;;;;17.20;63.92;100631.78;4945746;28;20519;-84
2022/05/09 10:14:40;;;;;;;7.00;5.03;;;;;;;17.11;64.28;100626.50;4961982;28;20462;-84
2022/05/09 10:17:26;;;;;;;8.68;4.85;;;;;;;17.14;64.92;100632.44;4946641;28;20058;-84
2022/05/09 10:19:53;;;;;;;5.97;4.10;;;;;;;17.10;64.95;100625.66;4961738;28;20057;-84
2022/05/09 10:25:19;;;;;;;6.97;4.00;;;;;;;17.16;65.03;100627.69;4949313;28;20093;-84
2022/05/09 10:27:46;;;;;;;5.82;4.22;;;;;;;17.21;65.41;100622.66;4946860;28;20381;-84
2022/05/09 10:30:17;;;;;;;5.45;4.25;;;;;;;17.31;64.99;100622.50;4947224;28;20428;-84
2022/05/09 10:32:52;;;;;;;9.60;5.15;;;;;;;17.36;64.97;100620.16;4946633;28;20507;-84
2022/05/09 10:35:28;;;;;;;7.32;4.55;;;;;;;17.31;64.41;100619.81;4931215;28;20042;-85
2022/05/09 10:38:00;;;;;;;5.50;4.95;;;;;;;17.34;64.91;100615.91;4946850;28;20085;-84
2022/05/09 10:40:50;;;;;;;8.13;5.70;;;;;;;17.43;64.56;100612.22;4930817;28;20030;-83
2022/05/09 10:43:34;;;;;;;8.90;5.30;;;;;;;17.46;63.97;100611.88;4948012;28;20899;-87
2022/05/09 10:46:07;;;;;;;7.68;5.00;;;;;;;17.41;63.80;100608.84;4947660;28;20038;-87
2022/05/09 10:48:38;;;;;;;11.07;5.47;;;;;;;17.51;63.36;100604.16;4947240;28;20031;-87
2022/05/09 10:51:11;;;;;;;6.75;4.93;;;;;;;17.70;63.01;100601.16;4947567;28;20018;-87
2022/05/09 10:53:55;;;;;;;7.50;5.28;;;;;;;18.04;62.48;100594.75;4946003;28;20027;-88
2022/05/09 10:56:28;;;;;;;6.90;5.15;;;;;;;17.91;62.56;100598.78;4946868;28;20070;-87
2022/05/09 10:59:00;;;;;;;10.73;5.82;;;;;;;17.82;62.82;100597.09;4947684;28;20557;-86
2022/05/09 11:01:35;;;;;;;9.60;5.93;;;;;;;18.09;63.11;100595.06;4963550;28;20027;-86
2022/05/09 11:04:00;;;;;;;7.82;6.00;;;;;;;17.91;62.41;100592.53;4947008;28;20422;-86
2022/05/09 11:06:31;;;;;;;8.75;5.65;;;;;;;17.86;62.64;100592.19;4947955;28;20126;-89
2022/05/09 11:09:18;;;;;;;9.75;6.13;;;;;;;17.91;62.88;100587.94;4948639;28;20141;-88
2022/05/09 11:11:59;;;;;;;6.32;4.93;;;;;;;17.75;63.43;100584.41;4947633;28;20097;-87
2022/05/09 11:14:45;;;;;;;7.32;5.57;;;;;;;17.92;63.14;100578.81;4935694;28;20035;-86
2022/05/09 11:17:40;;;;;;;9.15;5.88;;;;;;;17.99;63.14;100578.16;4947853;28;20066;-87
2022/05/09 11:20:19;;;;;;;7.80;5.85;;;;;;;17.92;64.26;100575.25;4932046;28;20035;-86
2022/05/09 11:23:02;;;;;;;10.13;6.95;;;;;;;18.05;62.95;100577.47;4947020;28;20565;-86
2022/05/09 11:25:32;;;;;;;9.43;5.60;;;;;;;17.90;64.14;100580.00;4946559;28;20181;-86
2022/05/09 11:28:00;;;;;;;10.65;6.05;;;;;;;18.01;64.13;100568.84;4946765;28;20511;-86
2022/05/09 11:30:28;;;;;;;7.75;5.97;;;;;;;18.19;62.53;100569.50;4944896;28;20117;-87
2022/05/09 11:33:30;;;;;;;7.85;6.22;;;;;;;18.26;61.88;100566.94;4963721;28;20027;-85
2022/05/09 11:36:01;;;;;;;10.70;5.85;;;;;;;18.15;62.89;100568.16;4932000;28;20093;-86
2022/05/09 11:38:36;;;;;;;10.93;6.25;;;;;;;18.20;61.85;100560.34;4946514;28;20035;-87
2022/05/09 11:41:31;;;;;;;7.00;5.43;;;;;;;18.14;62.76;100554.78;4937786;28;20038;-86
2022/05/09 11:44:09;;;;;;;8.23;5.75;;;;;;;18.25;62.71;100549.00;4945513;28;20134;-86